sensor_id;sensor_type;location;lat;lon;timestamp;P1;durP1;ratioP1;P2;durP2;ratioP2
48203;SDS011;33994;50.998;5.864;2022-09-03T00:06:16;6.25;;;1.75;;
48203;SDS011;33994;50.998;5.864;2022-09-03T00:12:12;2.25;;;1.50;;
48203;SDS011;33994;50.998;5.864;2022-09-03T00:15:06;3.42;;;1.52;;
48203;SDS011;33994;50.998;5.864;2022-09-03T00:17:58;6.20;;;2.10;;
48203;SDS011;33994;50.998;5.864;2022-09-03T00:20:51;7.28;;;3.22;;
48203;SDS011;33994;50.998;5.864;2022-09-03T00:23:43;6.90;;;1.60;;
48203;SDS011;33994;50.998;5.864;2022-09-03T00:26:32;2.40;;;1.40;;
48203;SDS011;33994;50.998;5.864;2022-09-03T00:29:23;4.43;;;1.95;;
48203;SDS011;33994;50.998;5.864;2022-09-03T00:32:14;2.92;;;1.48;;
48203;SDS011;33994;50.998;5.864;2022-09-03T00:35:04;3.95;;;1.90;;
48203;SDS011;33994;50.998;5.864;2022-09-03T00:37:59;5.00;;;1.83;;
48203;SDS011;33994;50.998;5.864;2022-09-03T00:55:43;7.10;;;1.50;;
48203;SDS011;33994;50.998;5.864;2022-09-03T00:58:43;5.65;;;1.67;;
48203;SDS011;33994;50.998;5.864;2022-09-03T01:04:55;5.35;;;1.77;;
48203;SDS011;33994;50.998;5.864;2022-09-03T01:14:28;4.45;;;1.88;;
48203;SDS011;33994;50.998;5.864;2022-09-03T01:17:27;9.20;;;1.67;;
48203;SDS011;33994;50.998;5.864;2022-09-03T01:27:05;5.97;;;1.83;;
48203;SDS011;33994;50.998;5.864;2022-09-03T01:33:14;4.70;;;1.98;;
48203;SDS011;33994;50.998;5.864;2022-09-03T01:36:23;4.22;;;1.67;;
48203;SDS011;33994;50.998;5.864;2022-09-03T01:51:20;6.38;;;1.75;;
48203;SDS011;33994;50.998;5.864;2022-09-03T01:54:11;7.22;;;1.88;;
48203;SDS011;33994;50.998;5.864;2022-09-03T01:57:07;9.18;;;1.85;;
48203;SDS011;33994;50.998;5.864;2022-09-03T02:00:10;2.65;;;1.40;;
48203;SDS011;33994;50.998;5.864;2022-09-03T02:03:03;3.55;;;1.63;;
48203;SDS011;33994;50.998;5.864;2022-09-03T02:05:49;3.20;;;1.55;;
48203;SDS011;33994;50.998;5.864;2022-09-03T02:08:35;6.40;;;1.33;;
48203;SDS011;33994;50.998;5.864;2022-09-03T02:11:21;3.13;;;1.55;;
48203;SDS011;33994;50.998;5.864;2022-09-03T02:14:06;4.03;;;1.50;;
48203;SDS011;33994;50.998;5.864;2022-09-03T02:16:52;8.40;;;1.70;;
48203;SDS011;33994;50.998;5.864;2022-09-03T02:19:40;4.18;;;1.30;;
48203;SDS011;33994;50.998;5.864;2022-09-03T02:22:25;6.20;;;1.58;;
48203;SDS011;33994;50.998;5.864;2022-09-03T02:25:11;2.83;;;1.63;;
48203;SDS011;33994;50.998;5.864;2022-09-03T02:27:57;5.90;;;1.85;;
48203;SDS011;33994;50.998;5.864;2022-09-03T02:30:43;4.47;;;1.55;;
48203;SDS011;33994;50.998;5.864;2022-09-03T02:33:34;3.75;;;1.42;;
48203;SDS011;33994;50.998;5.864;2022-09-03T02:36:35;6.88;;;1.67;;
48203;SDS011;33994;50.998;5.864;2022-09-03T02:39:23;9.48;;;1.60;;
48203;SDS011;33994;50.998;5.864;2022-09-03T02:42:11;1.70;;;1.13;;
48203;SDS011;33994;50.998;5.864;2022-09-03T02:44:59;4.18;;;1.60;;
48203;SDS011;33994;50.998;5.864;2022-09-03T02:47:55;2.55;;;1.13;;
48203;SDS011;33994;50.998;5.864;2022-09-03T02:50:42;2.30;;;1.42;;
48203;SDS011;33994;50.998;5.864;2022-09-03T02:53:28;2.72;;;1.50;;
48203;SDS011;33994;50.998;5.864;2022-09-03T02:56:13;4.70;;;1.50;;
48203;SDS011;33994;50.998;5.864;2022-09-03T02:58:58;5.18;;;1.50;;
48203;SDS011;33994;50.998;5.864;2022-09-03T03:01:44;6.25;;;1.80;;
48203;SDS011;33994;50.998;5.864;2022-09-03T03:04:29;3.38;;;1.50;;
48203;SDS011;33994;50.998;5.864;2022-09-03T03:07:15;4.18;;;1.58;;
48203;SDS011;33994;50.998;5.864;2022-09-03T03:10:00;5.28;;;1.52;;
48203;SDS011;33994;50.998;5.864;2022-09-03T03:12:46;3.20;;;1.27;;
48203;SDS011;33994;50.998;5.864;2022-09-03T03:15:31;3.78;;;1.27;;
48203;SDS011;33994;50.998;5.864;2022-09-03T03:18:16;4.38;;;1.35;;
48203;SDS011;33994;50.998;5.864;2022-09-03T03:21:07;3.10;;;1.42;;
48203;SDS011;33994;50.998;5.864;2022-09-03T03:23:54;3.72;;;1.30;;
48203;SDS011;33994;50.998;5.864;2022-09-03T03:26:39;5.20;;;1.40;;
48203;SDS011;33994;50.998;5.864;2022-09-03T03:29:25;5.47;;;1.17;;
48203;SDS011;33994;50.998;5.864;2022-09-03T03:32:12;2.92;;;1.27;;
48203;SDS011;33994;50.998;5.864;2022-09-03T03:34:59;3.58;;;1.60;;
48203;SDS011;33994;50.998;5.864;2022-09-03T03:37:45;3.22;;;1.30;;
48203;SDS011;33994;50.998;5.864;2022-09-03T03:40:30;3.03;;;1.40;;
48203;SDS011;33994;50.998;5.864;2022-09-03T03:43:17;5.60;;;1.30;;
48203;SDS011;33994;50.998;5.864;2022-09-03T03:46:02;3.10;;;1.58;;
48203;SDS011;33994;50.998;5.864;2022-09-03T03:48:48;4.63;;;1.35;;
48203;SDS011;33994;50.998;5.864;2022-09-03T03:51:37;2.85;;;1.35;;
48203;SDS011;33994;50.998;5.864;2022-09-03T03:54:23;3.28;;;1.10;;
48203;SDS011;33994;50.998;5.864;2022-09-03T03:57:09;4.03;;;1.27;;
48203;SDS011;33994;50.998;5.864;2022-09-03T03:59:54;3.47;;;1.42;;
48203;SDS011;33994;50.998;5.864;2022-09-03T04:02:40;6.53;;;1.20;;
48203;SDS011;33994;50.998;5.864;2022-09-03T04:05:25;3.00;;;1.20;;
48203;SDS011;33994;50.998;5.864;2022-09-03T04:08:10;3.25;;;1.10;;
48203;SDS011;33994;50.998;5.864;2022-09-03T04:10:59;3.65;;;1.40;;
48203;SDS011;33994;50.998;5.864;2022-09-03T04:13:45;6.03;;;1.15;;
48203;SDS011;33994;50.998;5.864;2022-09-03T04:16:32;6.95;;;1.35;;
48203;SDS011;33994;50.998;5.864;2022-09-03T04:19:17;3.65;;;1.10;;
48203;SDS011;33994;50.998;5.864;2022-09-03T04:22:03;2.70;;;1.40;;
48203;SDS011;33994;50.998;5.864;2022-09-03T04:24:48;3.80;;;1.50;;
48203;SDS011;33994;50.998;5.864;2022-09-03T04:27:34;2.03;;;1.42;;
48203;SDS011;33994;50.998;5.864;2022-09-03T04:30:19;2.08;;;1.33;;
48203;SDS011;33994;50.998;5.864;2022-09-03T04:33:05;2.95;;;1.23;;
48203;SDS011;33994;50.998;5.864;2022-09-03T04:35:50;4.47;;;1.20;;
48203;SDS011;33994;50.998;5.864;2022-09-03T04:41:29;2.63;;;1.67;;
48203;SDS011;33994;50.998;5.864;2022-09-03T04:44:15;4.40;;;1.40;;
48203;SDS011;33994;50.998;5.864;2022-09-03T04:47:00;3.60;;;1.10;;
48203;SDS011;33994;50.998;5.864;2022-09-03T04:49:45;1.83;;;1.30;;
48203;SDS011;33994;50.998;5.864;2022-09-03T04:52:31;2.33;;;1.20;;
48203;SDS011;33994;50.998;5.864;2022-09-03T04:55:16;7.20;;;1.20;;
48203;SDS011;33994;50.998;5.864;2022-09-03T04:58:02;2.75;;;1.55;;
48203;SDS011;33994;50.998;5.864;2022-09-03T05:00:50;1.67;;;1.00;;
48203;SDS011;33994;50.998;5.864;2022-09-03T05:03:36;4.80;;;1.45;;
48203;SDS011;33994;50.998;5.864;2022-09-03T05:06:21;5.00;;;1.40;;
48203;SDS011;33994;50.998;5.864;2022-09-03T05:09:08;1.80;;;1.30;;
48203;SDS011;33994;50.998;5.864;2022-09-03T05:11:53;1.20;;;1.08;;
48203;SDS011;33994;50.998;5.864;2022-09-03T05:14:39;5.00;;;1.40;;
48203;SDS011;33994;50.998;5.864;2022-09-03T05:17:24;2.08;;;1.25;;
48203;SDS011;33994;50.998;5.864;2022-09-03T05:20:10;2.83;;;1.27;;
48203;SDS011;33994;50.998;5.864;2022-09-03T05:22:56;5.63;;;1.80;;
48203;SDS011;33994;50.998;5.864;2022-09-03T05:25:41;6.25;;;1.50;;
48203;SDS011;33994;50.998;5.864;2022-09-03T05:28:28;4.32;;;1.55;;
48203;SDS011;33994;50.998;5.864;2022-09-03T05:31:15;2.50;;;1.50;;
48203;SDS011;33994;50.998;5.864;2022-09-03T05:34:02;3.28;;;1.20;;
48203;SDS011;33994;50.998;5.864;2022-09-03T05:36:49;5.43;;;1.20;;
48203;SDS011;33994;50.998;5.864;2022-09-03T05:39:36;2.15;;;1.42;;
48203;SDS011;33994;50.998;5.864;2022-09-03T05:42:21;1.67;;;1.05;;
48203;SDS011;33994;50.998;5.864;2022-09-03T05:45:07;3.53;;;1.00;;
48203;SDS011;33994;50.998;5.864;2022-09-03T05:47:53;3.17;;;1.20;;
48203;SDS011;33994;50.998;5.864;2022-09-03T05:50:39;2.78;;;1.10;;
48203;SDS011;33994;50.998;5.864;2022-09-03T05:53:25;6.57;;;1.45;;
48203;SDS011;33994;50.998;5.864;2022-09-03T05:56:15;2.63;;;1.20;;
48203;SDS011;33994;50.998;5.864;2022-09-03T05:59:03;2.95;;;1.15;;
48203;SDS011;33994;50.998;5.864;2022-09-03T06:01:52;2.72;;;1.30;;
48203;SDS011;33994;50.998;5.864;2022-09-03T06:04:37;2.13;;;1.20;;
48203;SDS011;33994;50.998;5.864;2022-09-03T06:07:23;5.80;;;1.08;;
48203;SDS011;33994;50.998;5.864;2022-09-03T06:10:10;2.97;;;1.00;;
48203;SDS011;33994;50.998;5.864;2022-09-03T06:12:55;3.17;;;1.00;;
48203;SDS011;33994;50.998;5.864;2022-09-03T06:15:46;5.35;;;1.42;;
48203;SDS011;33994;50.998;5.864;2022-09-03T06:18:32;2.92;;;1.08;;
48203;SDS011;33994;50.998;5.864;2022-09-03T06:21:18;2.20;;;1.17;;
48203;SDS011;33994;50.998;5.864;2022-09-03T06:24:03;2.75;;;1.20;;
48203;SDS011;33994;50.998;5.864;2022-09-03T06:26:49;3.90;;;1.17;;
48203;SDS011;33994;50.998;5.864;2022-09-03T06:29:35;4.25;;;1.20;;
48203;SDS011;33994;50.998;5.864;2022-09-03T06:32:22;5.95;;;1.27;;
48203;SDS011;33994;50.998;5.864;2022-09-03T06:35:08;3.40;;;1.20;;
48203;SDS011;33994;50.998;5.864;2022-09-03T06:37:53;1.55;;;1.27;;
48203;SDS011;33994;50.998;5.864;2022-09-03T06:40:38;3.15;;;1.15;;
48203;SDS011;33994;50.998;5.864;2022-09-03T06:43:24;5.10;;;1.30;;
48203;SDS011;33994;50.998;5.864;2022-09-03T06:46:11;4.97;;;1.30;;
48203;SDS011;33994;50.998;5.864;2022-09-03T06:48:58;3.00;;;1.30;;
48203;SDS011;33994;50.998;5.864;2022-09-03T06:51:44;1.95;;;1.20;;
48203;SDS011;33994;50.998;5.864;2022-09-03T06:54:29;4.22;;;1.27;;
48203;SDS011;33994;50.998;5.864;2022-09-03T06:57:14;6.65;;;1.30;;
48203;SDS011;33994;50.998;5.864;2022-09-03T07:00:00;3.83;;;1.30;;
48203;SDS011;33994;50.998;5.864;2022-09-03T07:02:47;6.43;;;1.08;;
48203;SDS011;33994;50.998;5.864;2022-09-03T07:08:20;3.72;;;1.33;;
48203;SDS011;33994;50.998;5.864;2022-09-03T07:11:06;7.60;;;1.40;;
48203;SDS011;33994;50.998;5.864;2022-09-03T07:13:54;3.92;;;0.88;;
48203;SDS011;33994;50.998;5.864;2022-09-03T07:16:40;2.93;;;1.40;;
48203;SDS011;33994;50.998;5.864;2022-09-03T07:19:26;3.53;;;1.30;;
48203;SDS011;33994;50.998;5.864;2022-09-03T07:22:11;3.22;;;1.50;;
48203;SDS011;33994;50.998;5.864;2022-09-03T07:24:57;5.40;;;1.35;;
48203;SDS011;33994;50.998;5.864;2022-09-03T07:27:42;5.05;;;1.30;;
48203;SDS011;33994;50.998;5.864;2022-09-03T07:30:27;6.68;;;1.58;;
48203;SDS011;33994;50.998;5.864;2022-09-03T07:33:12;2.65;;;1.15;;
48203;SDS011;33994;50.998;5.864;2022-09-03T07:36:01;4.35;;;1.40;;
48203;SDS011;33994;50.998;5.864;2022-09-03T07:38:53;6.00;;;2.10;;
48203;SDS011;33994;50.998;5.864;2022-09-03T07:41:40;3.17;;;1.38;;
48203;SDS011;33994;50.998;5.864;2022-09-03T07:44:28;2.35;;;1.27;;
48203;SDS011;33994;50.998;5.864;2022-09-03T07:47:14;4.85;;;1.50;;
48203;SDS011;33994;50.998;5.864;2022-09-03T07:50:01;7.40;;;3.08;;
48203;SDS011;33994;50.998;5.864;2022-09-03T07:52:48;2.25;;;1.33;;
48203;SDS011;33994;50.998;5.864;2022-09-03T07:55:33;2.13;;;1.30;;
48203;SDS011;33994;50.998;5.864;2022-09-03T07:58:19;8.50;;;1.95;;
48203;SDS011;33994;50.998;5.864;2022-09-03T08:01:08;5.65;;;1.40;;
48203;SDS011;33994;50.998;5.864;2022-09-03T08:03:59;3.55;;;1.40;;
48203;SDS011;33994;50.998;5.864;2022-09-03T08:06:45;3.80;;;1.17;;
48203;SDS011;33994;50.998;5.864;2022-09-03T08:09:30;4.90;;;1.40;;
48203;SDS011;33994;50.998;5.864;2022-09-03T08:12:16;6.13;;;1.50;;
48203;SDS011;33994;50.998;5.864;2022-09-03T08:15:01;4.70;;;1.40;;
48203;SDS011;33994;50.998;5.864;2022-09-03T08:17:47;2.63;;;1.40;;
48203;SDS011;33994;50.998;5.864;2022-09-03T08:20:33;3.50;;;1.30;;
48203;SDS011;33994;50.998;5.864;2022-09-03T08:23:18;5.28;;;1.23;;
48203;SDS011;33994;50.998;5.864;2022-09-03T08:26:03;3.28;;;1.00;;
48203;SDS011;33994;50.998;5.864;2022-09-03T08:28:51;8.40;;;1.25;;
48203;SDS011;33994;50.998;5.864;2022-09-03T08:31:37;5.25;;;1.35;;
48203;SDS011;33994;50.998;5.864;2022-09-03T08:34:22;3.80;;;1.48;;
48203;SDS011;33994;50.998;5.864;2022-09-03T08:37:08;6.82;;;1.63;;
48203;SDS011;33994;50.998;5.864;2022-09-03T08:39:53;4.00;;;1.60;;
48203;SDS011;33994;50.998;5.864;2022-09-03T08:45:52;2.50;;;1.17;;
48203;SDS011;33994;50.998;5.864;2022-09-03T08:48:37;5.70;;;1.42;;
48203;SDS011;33994;50.998;5.864;2022-09-03T08:51:23;3.42;;;1.45;;
48203;SDS011;33994;50.998;5.864;2022-09-03T08:54:11;5.75;;;1.30;;
48203;SDS011;33994;50.998;5.864;2022-09-03T08:56:59;5.03;;;1.63;;
48203;SDS011;33994;50.998;5.864;2022-09-03T08:59:50;5.20;;;1.50;;
48203;SDS011;33994;50.998;5.864;2022-09-03T09:02:47;5.47;;;1.85;;
48203;SDS011;33994;50.998;5.864;2022-09-03T09:05:46;3.10;;;1.42;;
48203;SDS011;33994;50.998;5.864;2022-09-03T09:08:45;2.58;;;1.40;;
48203;SDS011;33994;50.998;5.864;2022-09-03T09:14:46;1.80;;;1.15;;
48203;SDS011;33994;50.998;5.864;2022-09-03T09:20:53;5.30;;;1.50;;
48203;SDS011;33994;50.998;5.864;2022-09-03T09:23:47;4.90;;;1.50;;
48203;SDS011;33994;50.998;5.864;2022-09-03T09:26:34;2.03;;;1.42;;
48203;SDS011;33994;50.998;5.864;2022-09-03T09:29:20;5.60;;;1.80;;
48203;SDS011;33994;50.998;5.864;2022-09-03T09:32:06;4.47;;;1.48;;
48203;SDS011;33994;50.998;5.864;2022-09-03T09:34:54;5.35;;;1.52;;
48203;SDS011;33994;50.998;5.864;2022-09-03T09:37:50;5.65;;;1.30;;
48203;SDS011;33994;50.998;5.864;2022-09-03T09:40:37;3.05;;;1.50;;
48203;SDS011;33994;50.998;5.864;2022-09-03T09:43:25;3.88;;;1.42;;
48203;SDS011;33994;50.998;5.864;2022-09-03T09:46:12;5.30;;;1.33;;
48203;SDS011;33994;50.998;5.864;2022-09-03T09:49:00;4.35;;;1.95;;
48203;SDS011;33994;50.998;5.864;2022-09-03T09:51:46;6.30;;;1.60;;
48203;SDS011;33994;50.998;5.864;2022-09-03T09:54:32;6.10;;;1.65;;
48203;SDS011;33994;50.998;5.864;2022-09-03T09:57:21;3.45;;;1.40;;
48203;SDS011;33994;50.998;5.864;2022-09-03T10:00:10;6.93;;;1.70;;
48203;SDS011;33994;50.998;5.864;2022-09-03T10:03:00;6.32;;;1.70;;
48203;SDS011;33994;50.998;5.864;2022-09-03T10:05:54;5.28;;;2.20;;
48203;SDS011;33994;50.998;5.864;2022-09-03T10:08:44;5.85;;;1.83;;
48203;SDS011;33994;50.998;5.864;2022-09-03T10:11:29;3.55;;;1.73;;
48203;SDS011;33994;50.998;5.864;2022-09-03T10:14:58;9.10;;;2.58;;
48203;SDS011;33994;50.998;5.864;2022-09-03T10:26:58;3.35;;;2.30;;
48203;SDS011;33994;50.998;5.864;2022-09-03T10:29:44;3.88;;;2.28;;
48203;SDS011;33994;50.998;5.864;2022-09-03T10:32:38;4.22;;;2.22;;
48203;SDS011;33994;50.998;5.864;2022-09-03T10:35:34;4.78;;;1.85;;
48203;SDS011;33994;50.998;5.864;2022-09-03T10:44:14;6.00;;;2.35;;
48203;SDS011;33994;50.998;5.864;2022-09-03T10:50:13;4.60;;;2.42;;
48203;SDS011;33994;50.998;5.864;2022-09-03T11:03:10;3.17;;;2.17;;
48203;SDS011;33994;50.998;5.864;2022-09-03T11:06:27;3.67;;;2.30;;
48203;SDS011;33994;50.998;5.864;2022-09-03T11:09:19;4.55;;;2.22;;
48203;SDS011;33994;50.998;5.864;2022-09-03T11:12:11;3.60;;;2.17;;
48203;SDS011;33994;50.998;5.864;2022-09-03T11:15:06;1.92;;;1.73;;
48203;SDS011;33994;50.998;5.864;2022-09-03T11:18:00;6.70;;;2.53;;
48203;SDS011;33994;50.998;5.864;2022-09-03T11:20:53;3.58;;;2.42;;
48203;SDS011;33994;50.998;5.864;2022-09-03T11:23:44;7.05;;;2.20;;
48203;SDS011;33994;50.998;5.864;2022-09-03T11:26:34;5.60;;;2.17;;
48203;SDS011;33994;50.998;5.864;2022-09-03T11:32:33;4.38;;;1.92;;
48203;SDS011;33994;50.998;5.864;2022-09-03T11:43:58;4.75;;;1.83;;
48203;SDS011;33994;50.998;5.864;2022-09-03T11:46:53;2.13;;;1.70;;
48203;SDS011;33994;50.998;5.864;2022-09-03T11:49:44;2.17;;;1.95;;
48203;SDS011;33994;50.998;5.864;2022-09-03T11:52:33;2.45;;;1.92;;
48203;SDS011;33994;50.998;5.864;2022-09-03T11:55:30;5.30;;;2.10;;
48203;SDS011;33994;50.998;5.864;2022-09-03T11:58:24;3.65;;;2.00;;
48203;SDS011;33994;50.998;5.864;2022-09-03T12:01:16;4.47;;;2.50;;
48203;SDS011;33994;50.998;5.864;2022-09-03T12:04:03;5.57;;;2.10;;
48203;SDS011;33994;50.998;5.864;2022-09-03T12:07:03;3.00;;;2.08;;
48203;SDS011;33994;50.998;5.864;2022-09-03T12:10:02;2.63;;;2.10;;
48203;SDS011;33994;50.998;5.864;2022-09-03T12:16:13;2.05;;;1.75;;
48203;SDS011;33994;50.998;5.864;2022-09-03T12:19:05;2.75;;;2.13;;
48203;SDS011;33994;50.998;5.864;2022-09-03T12:21:55;4.28;;;2.30;;
48203;SDS011;33994;50.998;5.864;2022-09-03T12:24:41;6.78;;;2.55;;
48203;SDS011;33994;50.998;5.864;2022-09-03T12:27:27;2.72;;;1.98;;
48203;SDS011;33994;50.998;5.864;2022-09-03T12:30:17;3.53;;;2.42;;
48203;SDS011;33994;50.998;5.864;2022-09-03T12:33:06;4.35;;;2.20;;
48203;SDS011;33994;50.998;5.864;2022-09-03T12:35:56;3.95;;;2.10;;
48203;SDS011;33994;50.998;5.864;2022-09-03T12:38:43;3.15;;;2.47;;
48203;SDS011;33994;50.998;5.864;2022-09-03T12:41:30;4.03;;;2.40;;
48203;SDS011;33994;50.998;5.864;2022-09-03T12:44:18;4.70;;;2.60;;
48203;SDS011;33994;50.998;5.864;2022-09-03T12:47:15;5.35;;;2.30;;
48203;SDS011;33994;50.998;5.864;2022-09-03T12:50:07;6.75;;;2.45;;
48203;SDS011;33994;50.998;5.864;2022-09-03T12:52:58;3.60;;;2.42;;
48203;SDS011;33994;50.998;5.864;2022-09-03T12:55:50;3.00;;;2.13;;
48203;SDS011;33994;50.998;5.864;2022-09-03T12:58:49;5.85;;;2.20;;
48203;SDS011;33994;50.998;5.864;2022-09-03T13:01:44;6.00;;;2.55;;
48203;SDS011;33994;50.998;5.864;2022-09-03T13:04:34;2.85;;;2.33;;
48203;SDS011;33994;50.998;5.864;2022-09-03T13:10:26;4.00;;;2.13;;
48203;SDS011;33994;50.998;5.864;2022-09-03T13:13:21;2.95;;;2.13;;
48203;SDS011;33994;50.998;5.864;2022-09-03T13:25:12;3.22;;;2.30;;
48203;SDS011;33994;50.998;5.864;2022-09-03T13:33:58;5.65;;;2.30;;
48203;SDS011;33994;50.998;5.864;2022-09-03T13:36:50;5.00;;;2.63;;
48203;SDS011;33994;50.998;5.864;2022-09-03T13:39:48;4.07;;;2.53;;
48203;SDS011;33994;50.998;5.864;2022-09-03T13:42:39;3.35;;;2.63;;
48203;SDS011;33994;50.998;5.864;2022-09-03T13:48:42;4.07;;;2.65;;
48203;SDS011;33994;50.998;5.864;2022-09-03T13:51:48;6.13;;;2.60;;
48203;SDS011;33994;50.998;5.864;2022-09-03T13:54:45;3.92;;;2.35;;
48203;SDS011;33994;50.998;5.864;2022-09-03T13:57:45;4.55;;;2.08;;
48203;SDS011;33994;50.998;5.864;2022-09-03T14:06:43;4.40;;;2.03;;
48203;SDS011;33994;50.998;5.864;2022-09-03T14:12:48;2.53;;;1.90;;
48203;SDS011;33994;50.998;5.864;2022-09-03T14:15:59;5.70;;;2.40;;
48203;SDS011;33994;50.998;5.864;2022-09-03T14:18:57;6.57;;;2.25;;
48203;SDS011;33994;50.998;5.864;2022-09-03T14:22:05;4.60;;;2.30;;
48203;SDS011;33994;50.998;5.864;2022-09-03T14:28:25;5.85;;;2.58;;
48203;SDS011;33994;50.998;5.864;2022-09-03T14:31:24;2.75;;;2.10;;
48203;SDS011;33994;50.998;5.864;2022-09-03T14:34:25;5.25;;;2.10;;
48203;SDS011;33994;50.998;5.864;2022-09-03T14:46:31;2.60;;;2.13;;
48203;SDS011;33994;50.998;5.864;2022-09-03T14:52:50;4.28;;;2.40;;
48203;SDS011;33994;50.998;5.864;2022-09-03T14:59:06;3.53;;;2.38;;
48203;SDS011;33994;50.998;5.864;2022-09-03T15:05:14;6.70;;;1.95;;
48203;SDS011;33994;50.998;5.864;2022-09-03T15:08:07;3.45;;;2.08;;
48203;SDS011;33994;50.998;5.864;2022-09-03T15:14:17;5.18;;;2.10;;
48203;SDS011;33994;50.998;5.864;2022-09-03T15:17:27;5.97;;;2.20;;
48203;SDS011;33994;50.998;5.864;2022-09-03T15:20:15;6.47;;;2.30;;
48203;SDS011;33994;50.998;5.864;2022-09-03T15:29:26;3.63;;;2.08;;
48203;SDS011;33994;50.998;5.864;2022-09-03T15:44:23;3.45;;;2.28;;
48203;SDS011;33994;50.998;5.864;2022-09-03T15:47:12;3.28;;;2.42;;
48203;SDS011;33994;50.998;5.864;2022-09-03T15:50:33;4.05;;;2.45;;
48203;SDS011;33994;50.998;5.864;2022-09-03T15:53:28;7.05;;;2.28;;
48203;SDS011;33994;50.998;5.864;2022-09-03T15:56:24;3.67;;;2.42;;
48203;SDS011;33994;50.998;5.864;2022-09-03T15:59:20;3.08;;;2.40;;
48203;SDS011;33994;50.998;5.864;2022-09-03T16:02:09;5.18;;;2.65;;
48203;SDS011;33994;50.998;5.864;2022-09-03T16:07:53;3.35;;;2.40;;
48203;SDS011;33994;50.998;5.864;2022-09-03T16:11:00;4.25;;;2.28;;
48203;SDS011;33994;50.998;5.864;2022-09-03T16:14:01;3.95;;;2.33;;
48203;SDS011;33994;50.998;5.864;2022-09-03T16:20:19;4.65;;;2.60;;
48203;SDS011;33994;50.998;5.864;2022-09-03T16:23:11;3.75;;;2.33;;
48203;SDS011;33994;50.998;5.864;2022-09-03T16:26:15;3.60;;;2.30;;
48203;SDS011;33994;50.998;5.864;2022-09-03T16:29:25;4.72;;;3.13;;
48203;SDS011;33994;50.998;5.864;2022-09-03T16:32:19;3.13;;;2.20;;
48203;SDS011;33994;50.998;5.864;2022-09-03T16:41:23;3.20;;;2.40;;
48203;SDS011;33994;50.998;5.864;2022-09-03T16:47:15;4.63;;;2.33;;
48203;SDS011;33994;50.998;5.864;2022-09-03T16:50:26;5.00;;;2.40;;
48203;SDS011;33994;50.998;5.864;2022-09-03T16:59:40;4.68;;;2.25;;
48203;SDS011;33994;50.998;5.864;2022-09-03T17:08:57;4.45;;;2.50;;
48203;SDS011;33994;50.998;5.864;2022-09-03T17:12:07;3.28;;;2.53;;
48203;SDS011;33994;50.998;5.864;2022-09-03T17:15:21;4.45;;;2.33;;
48203;SDS011;33994;50.998;5.864;2022-09-03T17:24:27;6.65;;;2.60;;
48203;SDS011;33994;50.998;5.864;2022-09-03T17:27:25;3.00;;;2.00;;
48203;SDS011;33994;50.998;5.864;2022-09-03T17:36:50;3.58;;;2.22;;
48203;SDS011;33994;50.998;5.864;2022-09-03T17:39:55;3.97;;;2.10;;
48203;SDS011;33994;50.998;5.864;2022-09-03T17:48:57;4.28;;;2.20;;
48203;SDS011;33994;50.998;5.864;2022-09-03T17:51:46;2.45;;;2.25;;
48203;SDS011;33994;50.998;5.864;2022-09-03T17:54:40;4.72;;;2.67;;
48203;SDS011;33994;50.998;5.864;2022-09-03T17:57:31;4.47;;;2.40;;
48203;SDS011;33994;50.998;5.864;2022-09-03T18:00:25;2.83;;;2.20;;
48203;SDS011;33994;50.998;5.864;2022-09-03T18:03:29;5.85;;;2.95;;
48203;SDS011;33994;50.998;5.864;2022-09-03T18:06:31;5.05;;;2.53;;
48203;SDS011;33994;50.998;5.864;2022-09-03T18:09:29;7.82;;;2.35;;
48203;SDS011;33994;50.998;5.864;2022-09-03T18:15:12;5.47;;;2.35;;
48203;SDS011;33994;50.998;5.864;2022-09-03T18:18:15;3.15;;;2.60;;
48203;SDS011;33994;50.998;5.864;2022-09-03T18:21:11;4.20;;;2.50;;
48203;SDS011;33994;50.998;5.864;2022-09-03T18:27:46;3.95;;;2.40;;
48203;SDS011;33994;50.998;5.864;2022-09-03T18:30:52;7.68;;;2.45;;
48203;SDS011;33994;50.998;5.864;2022-09-03T18:33:55;4.32;;;2.53;;
48203;SDS011;33994;50.998;5.864;2022-09-03T18:36:58;4.68;;;2.22;;
48203;SDS011;33994;50.998;5.864;2022-09-03T18:40:01;3.47;;;2.53;;
48203;SDS011;33994;50.998;5.864;2022-09-03T18:43:14;3.88;;;2.50;;
48203;SDS011;33994;50.998;5.864;2022-09-03T18:46:21;4.15;;;2.50;;
48203;SDS011;33994;50.998;5.864;2022-09-03T18:49:46;6.80;;;3.30;;
48203;SDS011;33994;50.998;5.864;2022-09-03T18:59:48;6.65;;;2.90;;
48203;SDS011;33994;50.998;5.864;2022-09-03T19:03:29;6.80;;;2.83;;
48203;SDS011;33994;50.998;5.864;2022-09-03T19:06:45;6.45;;;3.25;;
48203;SDS011;33994;50.998;5.864;2022-09-03T19:09:58;3.47;;;3.08;;
48203;SDS011;33994;50.998;5.864;2022-09-03T19:19:48;4.90;;;3.60;;
48203;SDS011;33994;50.998;5.864;2022-09-03T19:22:54;5.82;;;3.50;;
48203;SDS011;33994;50.998;5.864;2022-09-03T19:25:59;5.50;;;3.58;;
48203;SDS011;33994;50.998;5.864;2022-09-03T19:29:15;6.35;;;4.10;;
48203;SDS011;33994;50.998;5.864;2022-09-03T19:32:38;7.28;;;3.85;;
48203;SDS011;33994;50.998;5.864;2022-09-03T19:39:33;11.60;;;4.15;;
48203;SDS011;33994;50.998;5.864;2022-09-03T19:50:03;9.02;;;5.47;;
48203;SDS011;33994;50.998;5.864;2022-09-03T19:53:18;6.55;;;4.35;;
48203;SDS011;33994;50.998;5.864;2022-09-03T19:56:27;6.20;;;4.78;;
48203;SDS011;33994;50.998;5.864;2022-09-03T19:59:35;7.15;;;4.03;;
48203;SDS011;33994;50.998;5.864;2022-09-03T20:02:41;7.63;;;4.18;;
48203;SDS011;33994;50.998;5.864;2022-09-03T20:05:49;3.85;;;2.70;;
48203;SDS011;33994;50.998;5.864;2022-09-03T20:08:53;6.53;;;3.20;;
48203;SDS011;33994;50.998;5.864;2022-09-03T20:12:04;4.88;;;3.10;;
48203;SDS011;33994;50.998;5.864;2022-09-03T20:14:51;4.32;;;2.83;;
48203;SDS011;33994;50.998;5.864;2022-09-03T20:32:52;3.47;;;2.40;;
48203;SDS011;33994;50.998;5.864;2022-09-03T20:45:00;3.22;;;2.55;;
48203;SDS011;33994;50.998;5.864;2022-09-03T21:05:42;4.20;;;2.75;;
48203;SDS011;33994;50.998;5.864;2022-09-03T21:14:37;3.88;;;2.72;;
48203;SDS011;33994;50.998;5.864;2022-09-03T21:23:44;3.17;;;2.47;;
48203;SDS011;33994;50.998;5.864;2022-09-03T21:26:35;3.90;;;2.67;;
48203;SDS011;33994;50.998;5.864;2022-09-03T21:32:16;7.15;;;3.30;;
48203;SDS011;33994;50.998;5.864;2022-09-03T21:35:07;7.07;;;3.00;;
48203;SDS011;33994;50.998;5.864;2022-09-03T21:38:04;4.80;;;2.80;;
48203;SDS011;33994;50.998;5.864;2022-09-03T21:44:05;5.30;;;2.97;;
48203;SDS011;33994;50.998;5.864;2022-09-03T21:46:58;3.00;;;2.70;;
48203;SDS011;33994;50.998;5.864;2022-09-03T21:52:52;3.45;;;2.50;;
48203;SDS011;33994;50.998;5.864;2022-09-03T21:58:44;4.07;;;2.67;;
48203;SDS011;33994;50.998;5.864;2022-09-03T22:04:44;6.57;;;2.78;;
48203;SDS011;33994;50.998;5.864;2022-09-03T22:10:44;3.70;;;2.47;;
48203;SDS011;33994;50.998;5.864;2022-09-03T22:13:45;4.47;;;2.53;;
48203;SDS011;33994;50.998;5.864;2022-09-03T22:16:53;3.90;;;3.30;;
48203;SDS011;33994;50.998;5.864;2022-09-03T22:19:49;7.63;;;2.90;;
48203;SDS011;33994;50.998;5.864;2022-09-03T22:23:09;3.47;;;2.78;;
48203;SDS011;33994;50.998;5.864;2022-09-03T22:28:47;3.20;;;2.90;;
48203;SDS011;33994;50.998;5.864;2022-09-03T22:32:08;2.95;;;2.55;;
48203;SDS011;33994;50.998;5.864;2022-09-03T22:35:21;3.75;;;2.60;;
48203;SDS011;33994;50.998;5.864;2022-09-03T22:38:23;2.80;;;2.53;;
48203;SDS011;33994;50.998;5.864;2022-09-03T22:41:23;2.20;;;2.00;;
48203;SDS011;33994;50.998;5.864;2022-09-03T22:47:35;2.58;;;2.38;;
48203;SDS011;33994;50.998;5.864;2022-09-03T22:50:35;3.10;;;2.33;;
48203;SDS011;33994;50.998;5.864;2022-09-03T22:55:40;3.50;;;2.55;;
48203;SDS011;33994;50.998;5.864;2022-09-03T22:58:34;2.63;;;1.98;;
48203;SDS011;33994;50.998;5.864;2022-09-03T23:01:40;4.57;;;3.00;;
48203;SDS011;33994;50.998;5.864;2022-09-03T23:10:41;2.45;;;1.92;;
48203;SDS011;33994;50.998;5.864;2022-09-03T23:13:39;2.88;;;2.22;;